Time;durP1;ratioP1;P1;durP2;ratioP2;P2;SDS_P1;SDS_P2;PMS_P1;PMS_P2;Temp;Humidity;BMP_temperature;BMP_pressure;BME280_temperature;BME280_humidity;BME280_pressure;Samples;Min_cycle;Max_cycle;Signal;HPM_P1;HPM_P2
2023/03/12 00:00:26;;;;;;;5.80;2.60;;;2.80;99.90;;;2.66;98.61;100645.59;5132154;28;20040;-71
2023/03/12 00:02:58;;;;;;;5.70;2.17;;;2.90;99.90;;;2.74;98.10;100649.56;5124218;29;20079;-70
2023/03/12 00:05:30;;;;;;;5.57;2.42;;;2.90;99.90;;;2.78;97.61;100656.66;5124600;29;20055;-72
2023/03/12 00:08:03;;;;;;;3.60;2.00;;;3.00;99.90;;;2.83;96.67;100654.41;5124205;29;20432;-69
2023/03/12 00:10:39;;;;;;;4.85;2.08;;;3.00;99.90;;;2.86;95.29;100645.16;5124457;28;20039;-69
2023/03/12 00:13:11;;;;;;;4.32;1.88;;;3.10;99.90;;;2.90;94.23;100636.84;5122087;29;20043;-69
2023/03/12 00:15:43;;;;;;;3.60;2.03;;;3.10;99.90;;;2.94;93.62;100644.00;5106115;29;20419;-68
2023/03/12 00:18:15;;;;;;;5.82;2.90;;;3.20;99.90;;;2.96;92.60;100633.78;5104176;29;20047;-67
2023/03/12 00:20:54;;;;;;;4.00;2.53;;;3.20;99.90;;;2.98;91.40;100640.78;5104160;29;20241;-67
2023/03/12 00:23:26;;;;;;;4.03;2.38;;;3.20;99.90;;;3.01;90.53;100636.66;5104385;29;20054;-70
2023/03/12 00:26:05;;;;;;;6.88;2.55;;;3.30;99.90;;;3.03;89.19;100637.63;5103835;29;20444;-69
2023/03/12 00:28:39;;;;;;;3.70;2.30;;;3.30;99.90;;;3.07;88.88;100634.44;5103792;29;20559;-67
2023/03/12 00:31:17;;;;;;;3.25;2.15;;;3.30;99.90;;;3.08;89.21;100625.94;5117185;29;20114;-69
2023/03/12 00:33:49;;;;;;;3.40;2.00;;;3.30;99.90;;;3.07;88.97;100631.88;5106490;29;20047;-72
2023/03/12 00:36:25;;;;;;;3.28;2.03;;;3.30;99.90;;;3.07;88.60;100629.31;5107820;29;20051;-71
2023/03/12 00:39:00;;;;;;;3.50;1.92;;;3.30;99.90;;;3.10;88.65;100634.63;5127067;29;20519;-69
2023/03/12 00:41:33;;;;;;;5.18;2.47;;;3.30;99.90;;;3.10;87.75;100634.63;5126794;29;20229;-69
2023/03/12 00:44:06;;;;;;;4.57;2.22;;;3.30;99.90;;;3.10;87.30;100616.59;5127935;29;20424;-67
2023/03/12 00:46:39;;;;;;;5.13;2.30;;;3.40;99.90;;;3.11;86.91;100615.78;5126373;29;20047;-68
2023/03/12 00:49:11;;;;;;;4.70;2.42;;;3.40;99.90;;;3.12;86.25;100612.41;5126317;29;20047;-69
2023/03/12 00:51:43;;;;;;;3.90;2.00;;;3.40;99.90;;;3.14;86.30;100610.84;5126275;28;20410;-69
2023/03/12 00:54:15;;;;;;;6.72;2.30;;;3.40;99.90;;;3.15;85.94;100610.06;5110158;29;20051;-68
2023/03/12 00:56:49;;;;;;;4.55;1.85;;;3.40;99.90;;;3.18;86.39;100615.38;5126020;29;20055;-69
2023/03/12 00:59:22;;;;;;;3.22;1.65;;;3.40;99.90;;;3.20;86.54;100606.97;5126050;29;20110;-70
2023/03/12 01:01:54;;;;;;;3.90;1.98;;;3.50;99.90;;;3.21;86.29;100613.91;5125785;29;20071;-70
2023/03/12 01:04:26;;;;;;;4.38;1.90;;;3.50;99.90;;;3.21;86.06;100608.75;5125886;29;20047;-69
2023/03/12 01:06:59;;;;;;;3.60;1.90;;;3.50;99.90;;;3.24;86.14;100608.91;5125969;29;20074;-72
2023/03/12 01:09:31;;;;;;;4.10;1.90;;;3.50;99.90;;;3.26;86.07;100609.03;5125617;29;20335;-70
2023/03/12 01:12:05;;;;;;;3.65;2.00;;;3.50;99.90;;;3.26;85.79;100611.59;5125780;29;20047;-69
2023/03/12 01:14:37;;;;;;;3.78;1.92;;;3.50;99.90;;;3.25;85.99;100613.25;5125751;29;20159;-69
2023/03/12 01:17:10;;;;;;;4.15;1.92;;;3.50;99.90;;;3.26;85.84;100616.75;5125618;29;20440;-68
2023/03/12 01:19:42;;;;;;;5.70;2.22;;;3.50;99.90;;;3.22;85.77;100614.78;5125660;29;20126;-69
2023/03/12 01:22:14;;;;;;;7.32;2.53;;;3.50;99.90;;;3.21;85.75;100607.84;5125734;29;20055;-68
2023/03/12 01:24:47;;;;;;;4.25;2.00;;;3.50;99.90;;;3.22;85.90;100609.63;5125838;28;20055;-69
2023/03/12 01:27:20;;;;;;;4.45;2.10;;;3.50;99.90;;;3.23;85.92;100601.09;5126755;29;20051;-70
2023/03/12 01:29:52;;;;;;;4.13;2.17;;;3.50;99.90;;;3.22;85.52;100599.31;5126562;29;20043;-68
2023/03/12 01:32:25;;;;;;;5.88;2.30;;;3.50;99.90;;;3.18;85.37;100587.03;5126802;29;20567;-69
2023/03/12 01:34:59;;;;;;;3.10;1.83;;;3.50;99.90;;;3.16;85.22;100589.53;5109321;29;20252;-71
2023/03/12 01:37:33;;;;;;;5.57;1.95;;;3.50;99.90;;;3.21;85.55;100592.41;5125117;29;20433;-69
2023/03/12 01:40:06;;;;;;;3.58;2.03;;;3.50;99.90;;;3.23;85.68;100575.34;5125235;29;20043;-71
2023/03/12 01:42:40;;;;;;;2.33;1.45;;;3.50;99.90;;;3.24;85.61;100578.00;5109145;29;20062;-68
2023/03/12 01:46:02;;;;;;;3.65;1.73;;;3.50;99.90;;;3.29;85.59;100574.81;5124663;28;20053;-70
2023/03/12 01:48:40;;;;;;;2.05;1.60;;;3.50;99.90;;;3.30;85.61;100572.31;5109245;29;20049;-69
2023/03/12 01:51:15;;;;;;;4.25;2.17;;;3.60;99.90;;;3.32;86.02;100568.16;5124796;29;20126;-70
2023/03/12 01:53:51;;;;;;;7.05;2.15;;;3.60;99.90;;;3.31;85.70;100565.50;5108859;29;20051;-69
2023/03/12 01:56:30;;;;;;;5.85;1.90;;;3.60;99.90;;;3.32;85.42;100557.84;5109142;29;20055;-70
2023/03/12 01:59:11;;;;;;;3.00;1.92;;;3.60;99.90;;;3.30;85.63;100562.03;5126292;29;20051;-71
2023/03/12 02:01:44;;;;;;;4.15;2.13;;;3.60;99.90;;;3.26;85.39;100557.50;5124668;29;20488;-70
2023/03/12 02:04:19;;;;;;;3.92;2.13;;;3.60;99.90;;;3.23;85.26;100555.63;5109417;29;20058;-69
2023/03/12 02:06:58;;;;;;;4.82;2.17;;;3.50;99.90;;;3.24;85.67;100551.34;5090995;29;20103;-69
2023/03/12 02:09:33;;;;;;;4.63;2.28;;;3.50;99.90;;;3.24;85.33;100546.19;5104714;29;20508;-71
2023/03/12 02:12:06;;;;;;;5.78;2.30;;;3.50;99.90;;;3.19;85.63;100542.44;5104957;29;20075;-71
2023/03/12 02:14:41;;;;;;;4.55;2.30;;;3.50;99.90;;;3.16;85.54;100535.44;5106076;29;20529;-69
2023/03/12 02:17:13;;;;;;;6.00;2.20;;;3.50;99.90;;;3.09;84.52;100527.25;5088844;29;20047;-70
2023/03/12 02:19:59;;;;;;;5.13;2.00;;;3.50;99.90;;;3.08;84.59;100515.19;5104661;29;20047;-69
2023/03/12 02:22:32;;;;;;;5.53;2.30;;;3.40;99.90;;;3.08;84.89;100512.59;5106182;29;20110;-70
2023/03/12 02:25:19;;;;;;;3.78;2.10;;;3.40;99.90;;;3.12;84.88;100511.97;5105792;29;20051;-68
2023/03/12 02:27:52;;;;;;;4.38;2.00;;;3.50;99.90;;;3.14;84.89;100515.56;5089023;29;20079;-73
2023/03/12 02:30:25;;;;;;;5.25;2.67;;;3.50;99.90;;;3.15;84.91;100520.78;5104637;29;20449;-68
2023/03/12 02:33:00;;;;;;;5.53;2.35;;;3.50;99.90;;;3.19;84.89;100527.00;5106059;29;20050;-69
2023/03/12 02:35:33;;;;;;;3.05;1.90;;;3.50;99.90;;;3.24;84.83;100517.84;5106239;29;20070;-69
2023/03/12 02:38:36;;;;;;;3.50;1.80;;;3.50;99.90;;;3.26;84.78;100508.56;5105582;29;20052;-69
2023/03/12 02:41:21;;;;;;;3.88;1.42;;;3.60;99.90;;;3.24;84.52;100507.56;5104281;29;20135;-70
2023/03/12 02:44:01;;;;;;;7.60;1.90;;;3.60;99.90;;;3.28;84.58;100504.38;5103991;29;20054;-69
2023/03/12 02:46:39;;;;;;;4.20;1.67;;;3.60;99.90;;;3.31;84.74;100506.22;5088535;29;20075;-69
2023/03/12 02:49:13;;;;;;;4.10;1.65;;;3.60;99.90;;;3.34;84.85;100507.31;5105063;29;20126;-69
2023/03/12 02:51:47;;;;;;;5.25;1.60;;;3.60;99.90;;;3.38;85.34;100509.25;5103842;29;20520;-68
2023/03/12 02:54:22;;;;;;;2.78;1.30;;;3.70;99.90;;;3.42;85.71;100520.63;5105444;29;20055;-69
2023/03/12 02:56:56;;;;;;;2.72;1.42;;;3.70;99.90;;;3.44;85.82;100514.78;5103684;29;20051;-70
2023/03/12 02:59:30;;;;;;;2.25;1.35;;;3.70;99.90;;;3.44;85.81;100517.34;5088190;29;20055;-68
2023/03/12 03:02:05;;;;;;;5.18;1.55;;;3.70;99.90;;;3.45;86.45;100518.22;5103897;29;20048;-69
2023/03/12 03:04:39;;;;;;;5.05;1.70;;;3.70;99.90;;;3.45;86.89;100511.38;5103617;29;20051;-71
2023/03/12 03:07:13;;;;;;;3.53;1.50;;;3.70;99.90;;;3.46;87.60;100518.34;5103793;29;20079;-69
2023/03/12 03:09:46;;;;;;;5.22;1.73;;;3.70;99.90;;;3.45;87.56;100521.69;5103459;29;20075;-68
2023/03/12 03:12:19;;;;;;;3.78;1.50;;;3.70;99.90;;;3.44;88.00;100513.88;5104925;29;20473;-69
2023/03/12 03:14:51;;;;;;;3.17;1.45;;;3.70;99.90;;;3.46;88.20;100522.63;5087631;29;20058;-69
2023/03/12 03:17:24;;;;;;;2.45;1.50;;;3.70;99.90;;;3.47;88.48;100517.53;5103478;29;20059;-71
2023/03/12 03:19:56;;;;;;;3.95;1.45;;;3.70;99.90;;;3.46;88.62;100510.63;5087316;29;20051;-70
2023/03/12 03:22:29;;;;;;;3.00;1.75;;;3.70;99.90;;;3.46;88.83;100512.31;5103130;29;20259;-68
2023/03/12 03:25:03;;;;;;;5.60;1.75;;;3.70;99.90;;;3.45;88.87;100507.91;5103481;29;20555;-70
2023/03/12 03:27:37;;;;;;;2.92;1.60;;;3.70;99.90;;;3.44;88.02;100512.19;5104755;29;20071;-72
2023/03/12 03:30:11;;;;;;;4.15;1.90;;;3.70;99.90;;;3.41;87.24;100516.28;5104545;29;20044;-68
2023/03/12 03:32:49;;;;;;;3.80;1.50;;;3.70;99.90;;;3.39;86.90;100508.47;5087548;29;20071;-70
2023/03/12 03:35:23;;;;;;;2.22;1.23;;;3.70;99.90;;;3.40;86.50;100510.25;5103103;29;20067;-70
2023/03/12 03:37:55;;;;;;;3.28;1.50;;;3.70;99.90;;;3.37;86.13;100499.75;5102962;29;20055;-69
2023/03/12 03:40:28;;;;;;;2.35;1.50;;;3.70;99.90;;;3.37;85.82;100486.88;5104472;29;20576;-70
2023/03/12 03:43:02;;;;;;;3.10;1.50;;;3.70;99.90;;;3.38;85.51;100501.53;5087163;29;20091;-69
2023/03/12 03:45:34;;;;;;;4.03;1.60;;;3.70;99.90;;;3.36;85.46;100495.41;5103100;29;20505;-69
2023/03/12 03:48:07;;;;;;;3.90;1.90;;;3.70;99.90;;;3.35;85.58;100488.47;5103031;29;20412;-69
2023/03/12 03:50:40;;;;;;;2.83;1.90;;;3.70;99.90;;;3.37;85.91;100476.56;5102495;29;20102;-71
2023/03/12 03:53:12;;;;;;;5.60;1.80;;;3.70;99.90;;;3.34;85.46;100476.41;5112075;29;20047;-69
2023/03/12 03:55:45;;;;;;;4.07;1.75;;;3.70;99.90;;;3.31;85.73;100476.19;5087921;29;20111;-69
2023/03/12 03:58:19;;;;;;;2.92;1.55;;;3.70;99.90;;;3.28;85.71;100488.03;5087048;29;20040;-69
2023/03/12 04:00:52;;;;;;;3.78;1.60;;;3.60;99.90;;;3.28;85.50;100490.59;5113686;29;20118;-67
2023/03/12 04:03:24;;;;;;;4.90;1.88;;;3.60;99.90;;;3.24;84.87;100489.53;5122262;29;20102;-68
2023/03/12 04:05:57;;;;;;;3.80;1.90;;;3.60;99.90;;;3.24;85.31;100489.53;5106626;29;20047;-66
2023/03/12 04:08:29;;;;;;;4.28;1.77;;;3.60;99.90;;;3.23;85.18;100485.19;5106097;29;20592;-71
2023/03/12 04:11:08;;;;;;;2.88;1.45;;;3.60;99.90;;;3.22;85.43;100488.56;5138030;28;20047;-70
2023/03/12 04:13:45;;;;;;;3.40;1.52;;;3.60;99.90;;;3.26;85.14;100486.25;5090493;29;20460;-68
2023/03/12 04:16:20;;;;;;;4.05;1.50;;;3.60;99.90;;;3.31;84.87;100485.63;5115776;29;20512;-69
2023/03/12 04:18:54;;;;;;;2.50;1.63;;;3.70;99.90;;;3.34;85.35;100481.56;5130655;28;20122;-69
2023/03/12 04:21:28;;;;;;;4.28;2.00;;;3.70;99.90;;;3.39;84.96;100479.22;5115663;29;20039;-69
2023/03/12 04:24:00;;;;;;;5.03;2.00;;;3.70;99.90;;;3.40;84.88;100481.91;5103772;29;20472;-71
2023/03/12 04:26:37;;;;;;;3.05;1.50;;;3.70;99.90;;;3.43;84.76;100470.88;5102456;29;20055;-68
2023/03/12 04:29:12;;;;;;;1.65;1.40;;;3.70;99.90;;;3.47;84.65;100483.16;5123364;29;20054;-70
2023/03/12 04:31:46;;;;;;;3.08;1.70;;;3.80;99.90;;;3.50;84.77;100473.91;5106240;29;20407;-70
2023/03/12 04:34:18;;;;;;;7.15;4.13;;;3.80;99.90;;;3.51;84.68;100478.25;5122015;29;20082;-69
2023/03/12 04:36:53;;;;;;;10.32;5.18;;;3.80;99.90;;;3.51;84.51;100474.78;5106522;29;20455;-71
2023/03/12 04:39:27;;;;;;;7.40;3.65;;;3.80;99.90;;;3.56;84.29;100477.63;5106215;29;20051;-69
2023/03/12 04:42:00;;;;;;;13.45;5.90;;;3.80;99.90;;;3.59;84.44;100483.88;5122197;29;20051;-68
2023/03/12 04:44:33;;;;;;;9.50;4.50;;;3.90;99.90;;;3.63;84.69;100480.63;5122468;29;20082;-69
2023/03/12 04:47:07;;;;;;;6.65;3.60;;;3.90;99.90;;;3.66;84.47;100472.22;5106268;29;20054;-69
2023/03/12 04:49:40;;;;;;;7.55;4.85;;;3.90;99.90;;;3.65;84.46;100466.19;5122985;29;20110;-69
2023/03/12 04:52:12;;;;;;;7.72;4.03;;;3.90;99.90;;;3.67;84.42;100461.97;5105967;29;20040;-68
2023/03/12 04:54:45;;;;;;;8.60;3.38;;;3.90;99.90;;;3.68;84.58;100468.03;5106791;29;20052;-70
2023/03/12 04:57:18;;;;;;;4.22;2.08;;;4.00;99.90;;;3.68;85.07;100468.03;5106113;29;20055;-71
2023/03/12 04:59:53;;;;;;;4.18;2.00;;;4.00;99.90;;;3.60;86.08;100458.97;5138588;28;20047;-68
2023/03/12 05:02:25;;;;;;;3.83;2.30;;;3.90;99.90;;;3.52;86.82;100462.00;5138761;28;20050;-71
2023/03/12 05:04:58;;;;;;;3.40;1.60;;;3.90;99.90;;;3.47;88.45;100463.44;5106211;29;20054;-69
2023/03/12 05:07:30;;;;;;;5.13;2.58;;;3.80;99.90;;;3.42;90.20;100459.69;5138332;28;20138;-68
2023/03/12 05:10:05;;;;;;;4.65;2.03;;;3.80;99.90;;;3.44;90.69;100457.19;5121954;29;20126;-71
2023/03/12 05:12:37;;;;;;;4.07;2.10;;;3.80;99.90;;;3.44;91.88;100455.50;5105872;29;20141;-71
2023/03/12 05:15:12;;;;;;;6.30;2.35;;;3.80;99.90;;;3.43;94.68;100453.72;5106073;29;20051;-71
2023/03/12 05:17:44;;;;;;;3.83;2.42;;;3.80;99.90;;;3.38;95.57;100462.88;5106293;29;20047;-70
2023/03/12 05:20:17;;;;;;;5.78;2.80;;;3.70;99.90;;;3.31;97.05;100446.97;5106538;29;20297;-69
2023/03/12 05:22:51;;;;;;;3.45;2.10;;;3.70;99.90;;;3.20;98.71;100434.38;5125701;29;20059;-68
2023/03/12 05:25:23;;;;;;;4.07;1.80;;;3.60;99.90;;;3.13;99.86;100431.31;5109620;29;20085;-69
2023/03/12 05:27:55;;;;;;;5.18;1.60;;;3.50;99.90;;;3.08;100.00;100432.78;5109653;29;20073;-70
2023/03/12 05:30:30;;;;;;;4.10;2.15;;;3.50;99.90;;;3.03;100.00;100431.59;5141459;28;20578;-69
2023/03/12 05:33:02;;;;;;;3.40;1.60;;;3.40;99.90;;;2.95;100.00;100436.31;5141852;28;20530;-70
2023/03/12 05:35:34;;;;;;;4.25;2.00;;;3.40;99.90;;;2.88;100.00;100426.44;5109583;29;20111;-70
2023/03/12 05:38:07;;;;;;;5.80;2.72;;;3.30;99.90;;;2.81;100.00;100412.31;5141489;28;20507;-71
2023/03/12 05:40:39;;;;;;;4.93;2.25;;;3.30;99.90;;;2.74;100.00;100417.91;5102278;29;20043;-69
2023/03/12 05:43:11;;;;;;;3.70;1.65;;;3.20;99.90;;;2.71;100.00;100418.59;5125051;29;20412;-69
2023/03/12 05:45:45;;;;;;;2.88;1.67;;;3.10;99.90;;;2.72;100.00;100410.06;5125582;29;20059;-71
2023/03/12 05:48:17;;;;;;;4.50;1.92;;;3.10;99.90;;;2.76;100.00;100397.41;5097188;29;20043;-69
2023/03/12 05:50:49;;;;;;;5.75;2.22;;;3.20;99.90;;;2.72;100.00;100391.16;5119447;23;20093;-83
2023/03/12 05:53:22;;;;;;;7.18;2.17;;;3.10;99.90;;;2.67;100.00;100384.84;5126835;28;20039;-85
2023/03/12 05:55:54;;;;;;;3.55;2.13;;;3.10;99.90;;;2.62;100.00;100391.44;5145412;28;20057;-86
2023/03/12 05:58:27;;;;;;;2.83;2.03;;;3.10;99.90;;;2.64;100.00;100393.28;5134953;28;20078;-84
2023/03/12 06:01:01;;;;;;;5.97;2.30;;;3.10;99.90;;;2.73;100.00;100395.50;5134370;28;20035;-84
2023/03/12 06:03:33;;;;;;;3.30;1.83;;;3.10;99.90;;;2.71;100.00;100392.84;5135102;28;20077;-84
2023/03/12 06:06:05;;;;;;;3.55;2.03;;;3.10;99.90;;;2.67;100.00;100385.78;5142906;28;20043;-84
2023/03/12 06:08:38;;;;;;;4.68;2.20;;;3.10;99.90;;;2.69;100.00;100373.00;5135316;28;20082;-84
2023/03/12 06:11:11;;;;;;;8.10;2.92;;;3.10;99.90;;;2.67;100.00;100367.75;5150627;28;20302;-83
2023/03/12 06:13:43;;;;;;;6.47;1.90;;;3.10;99.90;;;2.68;100.00;100368.63;5127264;28;20047;-84
2023/03/12 06:16:21;;;;;;;5.10;2.58;;;3.10;99.90;;;2.70;100.00;100374.75;5150150;28;20046;-84
2023/03/12 06:18:55;;;;;;;5.78;2.50;;;3.10;99.90;;;2.67;100.00;100360.03;5136629;28;20042;-84
2023/03/12 06:21:31;;;;;;;6.07;2.33;;;3.10;99.90;;;2.68;100.00;100366.94;5135769;28;20058;-84
2023/03/12 06:24:05;;;;;;;7.22;2.80;;;3.10;99.90;;;2.70;100.00;100364.47;5129852;28;20044;-84
2023/03/12 06:26:58;;;;;;;4.43;2.33;;;3.10;99.90;;;2.75;100.00;100363.06;5136805;28;20055;-84
2023/03/12 06:29:30;;;;;;;9.65;2.20;;;3.10;99.90;;;2.78;100.00;100368.38;5152613;28;20047;-83
2023/03/12 06:32:03;;;;;;;6.38;2.42;;;3.20;99.90;;;2.80;100.00;100364.19;5149182;28;20397;-84
2023/03/12 06:34:36;;;;;;;5.60;2.50;;;3.20;99.90;;;2.81;100.00;100367.69;5138364;28;20569;-83
2023/03/12 06:37:08;;;;;;;5.15;1.88;;;3.20;99.90;;;2.86;100.00;100372.28;5135229;28;20051;-84
2023/03/12 06:39:40;;;;;;;6.75;2.47;;;3.20;99.90;;;2.82;100.00;100367.75;5133000;28;20442;-83
2023/03/12 06:42:13;;;;;;;3.70;2.20;;;3.20;99.90;;;2.82;100.00;100374.59;5147419;28;20046;-85
2023/03/12 06:44:45;;;;;;;6.55;2.30;;;3.20;99.90;;;2.82;100.00;100375.47;5156125;28;20133;-84
2023/03/12 06:47:19;;;;;;;11.00;2.67;;;3.20;99.90;;;2.86;100.00;100382.56;5132117;28;20051;-84
2023/03/12 06:49:51;;;;;;;4.10;2.47;;;3.20;99.90;;;2.87;100.00;100386.03;5157946;28;20049;-83
2023/03/12 06:52:23;;;;;;;4.35;2.72;;;3.20;99.90;;;2.87;100.00;100379.22;5146701;28;20074;-84
2023/03/12 06:54:55;;;;;;;3.80;2.00;;;3.30;99.90;;;2.92;100.00;100377.78;5139301;28;20062;-87
2023/03/12 06:57:27;;;;;;;5.22;2.05;;;3.30;99.90;;;2.96;100.00;100384.00;5151604;28;20032;-83
2023/03/12 06:59:59;;;;;;;3.78;1.85;;;3.30;99.90;;;2.98;100.00;100387.56;5154277;28;20035;-87
2023/03/12 07:02:33;;;;;;;5.90;1.92;;;3.30;99.90;;;3.02;100.00;100386.06;5132848;29;20049;-84
2023/03/12 07:05:06;;;;;;;6.22;2.33;;;3.40;99.90;;;3.02;100.00;100381.78;5125490;28;20047;-84
2023/03/12 07:07:38;;;;;;;7.07;2.45;;;3.40;99.90;;;3.04;100.00;100376.72;5133744;28;20061;-83
2023/03/12 07:10:12;;;;;;;3.92;2.28;;;3.40;99.90;;;3.07;100.00;100387.22;5155686;28;20043;-83
2023/03/12 07:12:44;;;;;;;6.32;2.40;;;3.40;99.90;;;3.08;100.00;100378.69;5148028;28;20041;-84
2023/03/12 07:15:17;;;;;;;5.15;2.78;;;3.40;99.90;;;3.14;100.00;100373.91;5139120;28;20035;-84
2023/03/12 07:17:50;;;;;;;7.75;3.20;;;3.50;99.90;;;3.15;100.00;100371.41;5129826;28;20051;-83
2023/03/12 07:20:22;;;;;;;6.68;3.08;;;3.50;99.90;;;3.22;100.00;100380.38;5138117;28;20051;-84
2023/03/12 07:22:54;;;;;;;5.60;2.30;;;3.60;99.90;;;3.22;100.00;100383.81;5154423;28;20050;-85
2023/03/12 07:25:27;;;;;;;6.35;2.60;;;3.60;99.90;;;3.18;100.00;100371.56;5150048;28;20058;-84
2023/03/12 07:27:59;;;;;;;7.60;3.00;;;3.60;99.90;;;3.28;100.00;100375.56;5150402;28;20035;-85
2023/03/12 07:30:32;;;;;;;8.85;3.50;;;3.60;99.90;;;3.32;100.00;100374.91;5142635;28;20039;-84
2023/03/12 07:33:08;;;;;;;4.10;2.42;;;3.70;99.90;;;3.34;100.00;100380.19;5150387;28;20043;-83
2023/03/12 07:35:40;;;;;;;5.55;2.10;;;3.70;99.90;;;3.39;100.00;100379.66;5142444;28;20050;-84
2023/03/12 07:38:12;;;;;;;7.53;2.47;;;3.70;99.90;;;3.38;100.00;100385.56;5147128;28;20047;-86
2023/03/12 07:40:44;;;;;;;6.40;2.17;;;3.70;99.90;;;3.41;100.00;100385.75;5145322;28;20097;-83
2023/03/12 07:43:16;;;;;;;4.65;2.33;;;3.80;99.90;;;3.41;100.00;100375.47;5150285;28;20113;-83
2023/03/12 07:45:48;;;;;;;5.55;2.42;;;3.80;99.90;;;3.47;100.00;100370.66;5131706;28;20051;-83
2023/03/12 07:48:21;;;;;;;5.65;2.30;;;3.80;99.90;;;3.53;100.00;100360.69;5164844;28;20050;-83
2023/03/12 07:50:53;;;;;;;8.00;2.45;;;3.90;99.90;;;3.62;100.00;100367.16;5147133;28;20050;-82
2023/03/12 07:53:25;;;;;;;6.20;2.50;;;3.90;99.90;;;3.67;100.00;100373.47;5148942;28;20561;-83
2023/03/12 07:55:57;;;;;;;5.80;2.22;;;3.90;99.90;;;3.74;100.00;100365.25;5090223;28;20055;-83
2023/03/12 07:58:29;;;;;;;5.50;2.15;;;4.00;99.90;;;3.81;100.00;100373.41;5133723;28;20047;-82
2023/03/12 08:01:02;;;;;;;7.32;3.28;;;4.10;99.90;;;3.86;100.00;100375.38;5155180;28;20061;-84
2023/03/12 08:03:35;;;;;;;7.57;3.33;;;4.10;99.90;;;3.88;100.00;100364.31;5136548;28;20039;-83
2023/03/12 08:06:08;;;;;;;7.63;3.53;;;4.20;99.90;;;3.91;100.00;100366.16;5137481;28;20127;-83
2023/03/12 08:08:45;;;;;;;4.85;2.65;;;4.20;99.90;;;3.98;100.00;100366.59;5155025;28;20050;-83
2023/03/12 08:11:17;;;;;;;4.22;2.47;;;4.30;99.90;;;4.04;100.00;100364.34;5154916;28;20030;-83
2023/03/12 08:13:49;;;;;;;5.95;3.75;;;4.30;99.90;;;4.06;100.00;100354.13;5138789;28;20046;-84
2023/03/12 08:16:21;;;;;;;8.35;3.03;;;4.30;99.90;;;4.12;100.00;100364.75;5138095;28;20050;-82
2023/03/12 08:18:55;;;;;;;10.07;2.80;;;4.40;99.90;;;4.15;100.00;100353.69;5138004;28;20051;-84
2023/03/12 08:21:27;;;;;;;8.80;4.32;;;4.40;99.90;;;4.18;100.00;100356.47;5151622;28;20145;-83
2023/03/12 08:23:59;;;;;;;5.22;2.30;;;4.50;99.90;;;4.20;100.00;100365.16;5135656;28;20047;-82
2023/03/12 08:26:31;;;;;;;8.05;2.58;;;4.50;99.90;;;4.24;100.00;100369.69;5155898;28;20042;-84
2023/03/12 08:29:03;;;;;;;5.60;2.33;;;4.50;99.90;;;4.22;100.00;100355.81;5156052;28;20046;-84
2023/03/12 08:31:35;;;;;;;3.85;2.40;;;4.50;99.90;;;4.29;100.00;100355.31;5150622;28;20047;-83
2023/03/12 08:34:08;;;;;;;5.63;2.20;;;4.50;99.90;;;4.34;100.00;100361.63;5133468;28;20058;-83
2023/03/12 08:36:40;;;;;;;5.20;2.33;;;4.60;99.90;;;4.40;100.00;100361.94;5141668;28;20045;-84
2023/03/12 08:39:12;;;;;;;4.45;2.47;;;4.60;99.90;;;4.48;100.00;100360.63;5140988;28;20044;-85
2023/03/12 08:41:44;;;;;;;5.97;2.60;;;4.80;99.90;;;4.53;100.00;100361.75;5125887;29;20055;-85
2023/03/12 08:44:16;;;;;;;5.57;2.13;;;4.80;99.90;;;4.60;100.00;100358.69;5144961;28;20053;-85
2023/03/12 08:46:49;;;;;;;7.70;2.60;;;4.80;99.90;;;5.44;100.00;100367.19;5138206;28;20070;-86
2023/03/12 08:49:22;;;;;;;7.63;2.90;;;5.80;99.90;;;6.12;100.00;100359.22;5140899;28;20038;-86
2023/03/12 08:51:55;;;;;;;4.18;2.90;;;6.40;99.90;;;6.10;100.00;100362.56;5155143;28;20673;-84
2023/03/12 08:54:27;;;;;;;4.50;2.33;;;6.50;99.90;;;5.83;100.00;100364.72;5139200;28;20050;-84
2023/03/12 08:56:59;;;;;;;6.05;2.38;;;6.30;99.90;;;5.64;100.00;100357.78;5147488;28;20039;-82
2023/03/12 08:59:31;;;;;;;5.60;2.70;;;6.10;99.90;;;5.42;100.00;100356.78;5148034;28;20404;-83
2023/03/12 09:02:04;;;;;;;6.40;2.90;;;5.80;99.90;;;5.34;100.00;100352.91;5129530;28;20050;-83
2023/03/12 09:04:37;;;;;;;4.53;2.22;;;5.70;99.90;;;5.69;100.00;100348.56;5146599;28;20134;-81
2023/03/12 09:07:09;;;;;;;5.00;3.10;;;6.00;99.90;;;5.62;100.00;100362.91;5150268;28;20068;-83
2023/03/12 09:09:41;;;;;;;6.85;2.55;;;6.00;99.90;;;5.56;100.00;100352.25;5138324;28;20046;-81
2023/03/12 09:12:13;;;;;;;5.35;2.60;;;5.90;99.90;;;5.50;100.00;100336.47;5153200;28;20097;-83
2023/03/12 09:14:46;;;;;;;4.75;2.50;;;5.80;99.90;;;5.46;100.00;100344.88;5154838;28;20046;-81
2023/03/12 09:17:18;;;;;;;6.93;2.67;;;5.70;99.90;;;5.45;100.00;100343.09;5127437;28;20050;-84
2023/03/12 09:19:51;;;;;;;4.82;2.20;;;5.70;99.90;;;5.37;100.00;100340.16;5135443;28;20389;-84
2023/03/12 09:22:24;;;;;;;5.05;2.38;;;5.60;99.90;;;5.38;100.00;100343.63;5135207;28;20031;-82
2023/03/12 09:24:56;;;;;;;4.50;2.50;;;5.60;99.90;;;5.41;100.00;100351.50;5141496;28;20050;-84
2023/03/12 09:27:28;;;;;;;4.20;2.30;;;5.70;99.90;;;5.36;100.00;100353.91;5154086;28;20135;-86
2023/03/12 09:30:00;;;;;;;6.68;2.55;;;5.60;99.90;;;5.30;100.00;100353.59;5152630;28;20077;-82
2023/03/12 09:32:32;;;;;;;7.03;2.50;;;5.50;99.90;;;5.25;100.00;100355.06;5138865;28;20043;-85
2023/03/12 09:35:07;;;;;;;6.38;3.80;;;5.60;99.90;;;5.24;100.00;100362.75;5133005;28;20063;-85
2023/03/12 09:37:39;;;;;;;;;;;5.50;99.90;;;5.20;100.00;100350.47;5153357;28;20042;-86
2023/03/12 09:40:18;;;;;;;6.97;3.10;;;5.50;99.90;;;5.14;100.00;100351.94;5160092;28;19922;-86
2023/03/12 09:42:54;;;;;;;4.80;3.00;;;5.40;99.90;;;5.17;100.00;100352.09;5155056;28;20038;-85
2023/03/12 09:45:29;;;;;;;4.75;2.78;;;5.40;99.90;;;5.22;100.00;100354.94;5157350;28;20137;-85
2023/03/12 09:48:05;;;;;;;6.40;2.80;;;5.50;99.90;;;5.25;100.00;100354.19;5153609;28;20416;-86
2023/03/12 09:50:42;;;;;;;7.80;3.33;;;5.50;99.90;;;5.31;100.00;100352.78;5124660;28;20436;-85
2023/03/12 09:53:26;;;;;;;7.35;3.28;;;5.60;99.90;;;5.49;100.00;100354.50;5154477;28;20051;-83
2023/03/12 09:55:59;;;;;;;5.80;2.85;;;5.70;99.90;;;5.63;100.00;100354.31;5155892;28;20039;-86
2023/03/12 09:58:34;;;;;;;7.60;3.50;;;5.80;99.90;;;5.70;100.00;100360.69;5132833;28;20521;-88
2023/03/12 10:01:22;;;;;;;7.28;3.30;;;5.90;99.90;;;5.67;100.00;100356.25;5150132;28;20397;-86
2023/03/12 10:04:19;;;;;;;8.93;3.50;;;5.90;99.90;;;5.67;100.00;100351.09;5151942;28;20043;-87
2023/03/12 10:07:02;;;;;;;7.68;3.55;;;5.90;99.90;;;5.72;100.00;100349.56;5143576;28;20047;-85
2023/03/12 10:10:03;;;;;;;8.93;3.15;;;5.90;99.90;;;5.76;100.00;100354.91;5149290;28;20053;-85
2023/03/12 10:12:50;;;;;;;7.63;3.33;;;6.00;99.90;;;5.80;100.00;100344.75;5122763;28;20043;-86
2023/03/12 10:15:37;;;;;;;7.22;3.67;;;6.00;99.90;;;5.78;100.00;100340.34;5133399;28;20035;-88
2023/03/12 10:18:21;;;;;;;7.93;3.92;;;6.00;99.90;;;5.79;100.00;100344.69;5149925;28;20122;-82
2023/03/12 10:21:07;;;;;;;8.88;3.47;;;6.00;99.90;;;5.85;100.00;100352.75;5163201;28;20047;-86
2023/03/12 10:24:00;;;;;;;6.57;3.35;;;6.00;99.90;;;5.90;100.00;100348.66;5133465;28;20114;-86
2023/03/12 10:26:37;;;;;;;7.85;3.72;;;6.10;99.90;;;6.01;100.00;100346.63;5122799;28;20081;-86
2023/03/12 10:29:16;;;;;;;12.20;4.75;;;6.20;99.90;;;5.97;100.00;100348.16;5126729;28;20055;-86
2023/03/12 10:31:55;;;;;;;9.13;3.97;;;6.20;99.90;;;5.92;100.00;100345.34;5147704;28;20049;-85
2023/03/12 10:34:36;;;;;;;7.78;3.95;;;6.20;99.90;;;5.92;100.00;100357.41;5126762;28;20517;-86
2023/03/12 10:37:17;;;;;;;7.57;3.53;;;6.10;99.90;;;5.92;100.00;100349.66;5160017;28;20091;-85
2023/03/12 10:39:52;;;;;;;7.53;3.70;;;6.20;99.90;;;5.95;100.00;100355.88;5159801;28;20050;-86
2023/03/12 10:42:27;;;;;;;6.45;3.58;;;6.20;99.90;;;6.00;100.00;100350.91;5129787;28;20054;-87
2023/03/12 10:45:16;;;;;;;10.27;4.03;;;6.20;99.90;;;6.06;100.00;100356.34;5144252;28;20409;-86
2023/03/12 10:47:56;;;;;;;6.45;3.30;;;6.20;99.90;;;6.09;100.00;100356.50;5128815;28;20054;-85
2023/03/12 10:50:31;;;;;;;7.13;4.47;;;6.30;99.90;;;6.10;100.00;100355.69;5131558;28;20117;-86
2023/03/12 10:53:21;;;;;;;8.57;4.40;;;6.30;99.90;;;6.16;100.00;100355.06;5162937;28;20055;-87